Time;durP1;ratioP1;P1;durP2;ratioP2;P2;SDS_P1;SDS_P2;PMS_P1;PMS_P2;Temp;Humidity;BMP_temperature;BMP_pressure;BME280_temperature;BME280_humidity;BME280_pressure;Samples;Min_cycle;Max_cycle;Signal;HPM_P1;HPM_P2
2023/01/23 05:32:49;;;;;;;;;36.25;35.50;;;;;5.63;60.86;102913.38;5036313;28;45422;-78
2023/01/23 05:35:15;;;;;;;;;47.75;37.75;;;;;5.52;61.20;102897.34;5035731;28;45824;-77
2023/01/23 05:37:40;;;;;;;;;42.75;36.25;;;;;5.55;61.41;102907.09;5035792;28;45336;-78
2023/01/23 05:40:10;;;;;;;;;32.00;30.50;;;;;5.54;61.77;102910.63;5036263;28;45316;-77
2023/01/23 05:42:35;;;;;;;;;45.75;35.50;;;;;5.58;61.53;102915.13;5036178;28;46072;-77
2023/01/23 05:45:00;;;;;;;;;45.50;39.50;;;;;5.56;61.07;102915.09;5034726;28;45499;-78
2023/01/23 05:47:26;;;;;;;;;45.75;37.25;;;;;5.62;61.20;102924.91;5036953;28;45516;-78
2023/01/23 05:49:52;;;;;;;;;42.75;37.00;;;;;5.62;61.21;102923.13;5018781;28;45367;-78
2023/01/23 05:52:18;;;;;;;;;45.00;39.25;;;;;5.63;61.33;102929.34;5036439;28;46557;-77
2023/01/23 05:54:43;;;;;;;;;42.50;40.00;;;;;5.58;61.18;102923.09;5018315;28;45269;-77
2023/01/23 05:57:09;;;;;;;;;41.50;35.00;;;;;5.52;61.10;102920.41;5036703;28;45278;-78
2023/01/23 05:59:34;;;;;;;;;50.75;41.50;;;;;5.55;61.01;102934.59;5034911;28;45951;-78
2023/01/23 06:01:59;;;;;;;;;46.75;35.50;;;;;5.47;61.25;102920.34;5024785;28;47569;-78
2023/01/23 06:04:25;;;;;;;;;33.75;33.00;;;;;5.44;61.52;102911.44;5035828;28;45214;-77
2023/01/23 06:06:50;;;;;;;;;47.25;36.75;;;;;5.53;61.16;102936.34;5036209;28;45330;-78
2023/01/23 06:09:16;;;;;;;;;47.50;32.00;;;;;5.55;61.48;102941.69;5041509;28;45566;-76
2023/01/23 06:11:41;;;;;;;;;42.00;34.75;;;;;5.58;61.11;102931.97;5036194;28;45360;-76
2023/01/23 06:14:06;;;;;;;;;39.75;31.25;;;;;5.61;61.44;102945.28;5035747;28;45401;-78
2023/01/23 06:16:32;;;;;;;;;39.25;35.25;;;;;5.61;60.80;102950.63;5018646;28;45253;-76
2023/01/23 06:18:57;;;;;;;;;40.25;35.25;;;;;5.60;61.06;102947.97;5035787;28;45459;-76
2023/01/23 06:21:22;;;;;;;;;38.50;34.75;;;;;5.45;61.13;102915.88;5035361;28;46207;-78
2023/01/23 06:23:48;;;;;;;;;43.75;35.50;;;;;5.58;61.31;102947.94;5035972;28;45307;-77
2023/01/23 06:26:13;;;;;;;;;32.25;28.50;;;;;5.57;60.88;102959.47;5035695;28;45385;-77
2023/01/23 06:28:39;;;;;;;;;43.25;33.75;;;;;5.58;61.06;102960.34;5034571;28;45264;-76
2023/01/23 06:31:06;;;;;;;;;29.50;24.50;;;;;5.55;60.88;102957.66;5034705;28;45421;-78
2023/01/23 06:33:31;;;;;;;;;40.25;35.50;;;;;5.64;61.01;102963.06;5035050;28;45489;-75
2023/01/23 06:36:02;;;;;;;;;40.75;32.00;;;;;5.53;60.26;102944.31;5035351;28;45528;-79
2023/01/23 06:38:28;;;;;;;;;45.25;36.50;;;;;5.52;60.32;102954.97;5034963;28;45681;-77
2023/01/23 06:40:53;;;;;;;;;33.25;27.25;;;;;5.40;60.66;102937.13;5019627;28;47127;-79
2023/01/23 06:43:19;;;;;;;;;34.75;28.00;;;;;5.42;60.97;102938.03;5017967;28;45333;-78
2023/01/23 06:45:45;;;;;;;;;39.50;30.75;;;;;5.45;60.51;102939.81;5037142;28;45470;-79
2023/01/23 06:48:11;;;;;;;;;26.25;19.00;;;;;5.54;60.73;102950.53;5016535;28;46026;-78
2023/01/23 06:50:38;;;;;;;;;32.25;30.75;;;;;5.44;60.19;102933.63;5016945;28;47013;-78
2023/01/23 06:53:04;;;;;;;;;34.50;30.25;;;;;5.57;60.39;102961.22;5035029;28;45370;-79
2023/01/23 06:55:29;;;;;;;;;36.75;30.75;;;;;5.50;60.21;102948.75;5016995;28;45263;-80
2023/01/23 06:57:55;;;;;;;;;37.00;35.25;;;;;5.17;60.36;102893.44;5031678;28;45595;-79
2023/01/23 07:00:21;;;;;;;;;30.75;28.50;;;;;5.42;60.30;102932.72;5016947;28;47003;-78
2023/01/23 07:02:46;;;;;;;;;33.00;28.00;;;;;5.49;60.66;102946.97;5034685;28;45376;-77
2023/01/23 07:05:11;;;;;;;;;43.25;33.25;;;;;5.53;60.45;102949.66;5035195;28;45365;-79
2023/01/23 07:07:37;;;;;;;;;29.25;27.25;;;;;5.37;60.27;102915.78;5034779;28;45659;-79
2023/01/23 07:10:03;;;;;;;;;38.50;30.00;;;;;5.37;60.63;102918.44;5034972;28;45385;-81
2023/01/23 07:12:30;;;;;;;;;35.00;29.75;;;;;5.42;60.26;102935.38;5034570;28;45532;-80
2023/01/23 07:14:56;;;;;;;;;43.75;32.50;;;;;5.54;60.56;102942.56;5017330;28;45325;-80
2023/01/23 07:17:21;;;;;;;;;39.75;31.25;;;;;5.44;61.26;102925.66;5034329;28;45644;-82
2023/01/23 07:19:46;;;;;;;;;34.00;30.00;;;;;5.37;60.66;102918.44;5034649;28;46483;-79
2023/01/23 07:22:16;;;;;;;;;37.25;33.25;;;;;5.00;60.90;102849.84;5016205;28;45457;-78
2023/01/23 07:24:41;;;;;;;;;38.75;29.25;;;;;5.53;60.42;102947.00;5015928;28;45535;-78
2023/01/23 07:27:06;;;;;;;;;27.25;25.25;;;;;5.37;60.73;102910.47;5016745;28;47387;-80
2023/01/23 07:29:32;;;;;;;;;41.50;35.50;;;;;5.56;60.27;102944.38;5016830;28;47673;-79
2023/01/23 07:31:59;;;;;;;;;32.25;28.25;;;;;5.40;60.99;102926.47;5028833;28;45243;-78
2023/01/23 07:34:25;;;;;;;;;35.25;32.50;;;;;5.56;60.70;102952.34;5037336;28;45430;-79
2023/01/23 07:36:50;;;;;;;;;31.50;30.25;;;;;5.63;60.88;102961.28;5054540;28;45294;-80
2023/01/23 07:39:15;;;;;;;;;25.50;23.25;;;;;5.58;60.37;102945.28;5037653;28;47501;-81
2023/01/23 07:41:40;;;;;;;;;36.00;34.25;;;;;5.65;60.26;102956.88;5055129;28;45374;-80
2023/01/23 07:44:13;;;;;;;;;33.75;29.25;;;;;5.16;60.32;102871.28;5055670;28;45340;-79
2023/01/23 07:46:38;;;;;;;;;41.75;35.25;;;;;5.37;60.57;102913.13;5042108;28;45450;-81
2023/01/23 07:49:03;;;;;;;;;38.75;35.75;;;;;5.57;60.75;102938.19;5054438;28;45410;-79
2023/01/23 07:51:29;;;;;;;;;38.25;33.00;;;;;5.49;60.57;102933.66;5054535;28;45395;-79
2023/01/23 07:53:54;;;;;;;;;41.25;34.00;;;;;5.66;60.35;102967.53;5054796;28;45878;-81
2023/01/23 07:56:20;;;;;;;;;34.50;32.50;;;;;5.58;60.73;102945.28;5054269;28;45581;-79
2023/01/23 07:58:48;;;;;;;;;31.50;28.00;;;;;5.64;60.53;102963.06;5055091;28;45460;-79
2023/01/23 08:01:13;;;;;;;;;33.75;26.75;;;;;5.76;60.19;102980.94;5045186;28;45387;-80
2023/01/23 08:03:39;;;;;;;;;39.00;29.50;;;;;5.36;60.46;102900.69;5058405;28;45511;-79
2023/01/23 08:06:04;;;;;;;;;30.50;28.75;;;;;5.53;60.25;102932.81;5040448;28;46232;-80
2023/01/23 08:08:30;;;;;;;;;39.00;36.25;;;;;5.48;60.06;102932.75;5058433;28;46013;-78
2023/01/23 08:10:56;;;;;;;;;33.00;27.50;;;;;5.51;59.81;102942.56;5040289;28;45320;-83
2023/01/23 08:13:21;;;;;;;;;40.00;33.25;;;;;5.48;60.06;102940.75;5058776;28;45482;-81
2023/01/23 08:15:46;;;;;;;;;36.50;33.25;;;;;5.59;60.45;102964.81;5037695;28;45749;-78
2023/01/23 08:18:12;;;;;;;;;45.75;39.25;;;;;5.57;60.36;102964.78;5045955;28;45348;-79
2023/01/23 08:20:37;;;;;;;;;35.00;33.00;;;;;5.36;60.37;102935.28;5055253;28;45336;-79
2023/01/23 08:23:02;;;;;;;;;36.25;35.00;;;;;5.28;60.66;102915.69;5051347;28;45397;-80
2023/01/23 08:25:29;;;;;;;;;38.75;35.25;;;;;5.37;60.89;102930.84;5057041;28;45414;-82
2023/01/23 08:27:55;;;;;;;;;42.00;36.75;;;;;5.61;60.91;102971.91;5057280;28;46151;-79
2023/01/23 08:30:20;;;;;;;;;46.50;36.25;;;;;5.44;60.55;102925.66;5057028;28;45444;-79
2023/01/23 08:32:46;;;;;;;;;43.50;36.00;;;;;5.51;60.31;102937.22;5057124;28;45559;-77
2023/01/23 08:35:11;;;;;;;;;35.75;29.50;;;;;5.72;60.64;102966.69;5057332;28;45529;-79
2023/01/23 08:37:37;;;;;;;;;39.25;35.75;;;;;5.72;60.42;102958.72;5060825;28;46029;-80
2023/01/23 08:40:03;;;;;;;;;48.00;35.00;;;;;5.60;60.28;102934.66;5058436;28;45370;-80
2023/01/23 08:42:28;;;;;;;;;39.75;33.75;;;;;5.87;60.32;102981.94;5040988;28;45425;-78
2023/01/23 08:44:54;;;;;;;;;37.00;31.75;;;;;5.74;60.45;102945.41;5060055;28;45649;-78
2023/01/23 08:47:20;;;;;;;;;49.25;36.50;;;;;5.95;60.20;102964.28;5041447;28;46129;-79
2023/01/23 08:49:45;;;;;;;;;32.25;30.50;;;;;5.99;60.41;102968.75;5057461;28;45345;-78
2023/01/23 08:52:10;;;;;;;;;44.50;35.00;;;;;5.79;60.09;102936.59;5057771;28;45556;-77
2023/01/23 08:54:36;;;;;;;;;34.00;30.25;;;;;5.89;59.70;102949.16;5058465;28;45501;-80
2023/01/23 08:57:01;;;;;;;;;33.25;26.25;;;;;6.02;59.98;102956.38;5037146;28;47103;-78
2023/01/23 08:59:27;;;;;;;;;51.75;38.25;;;;;5.91;59.96;102935.84;5055271;28;45335;-77
2023/01/23 09:01:53;;;;;;;;;43.50;33.25;;;;;5.97;60.25;102944.78;5057154;28;45280;-79
2023/01/23 09:04:18;;;;;;;;;42.75;35.50;;;;;6.14;59.55;102960.00;5056627;28;45482;-79
2023/01/23 09:06:43;;;;;;;;;41.75;37.50;;;;;6.10;59.35;102953.75;5057031;28;45480;-77
2023/01/23 09:09:09;;;;;;;;;34.75;26.50;;;;;6.08;59.42;102961.75;5056647;28;45540;-77
2023/01/23 09:11:34;;;;;;;;;42.50;38.25;;;;;6.03;59.52;102949.28;5035590;28;45333;-82
2023/01/23 09:14:00;;;;;;;;;33.75;27.75;;;;;6.02;59.28;102945.72;5057587;28;45320;-78
2023/01/23 09:16:25;;;;;;;;;40.25;35.50;;;;;6.21;59.30;102973.34;5045026;28;45426;-80
2023/01/23 09:18:50;;;;;;;;;47.25;36.50;;;;;6.27;59.21;102967.22;5054325;28;45296;-80
2023/01/23 09:21:16;;;;;;;;;36.75;32.50;;;;;6.28;59.34;102972.56;5038203;28;45608;-79
2023/01/23 09:23:42;;;;;;;;;44.25;33.00;;;;;6.35;59.06;102977.03;5056859;28;45534;-79
2023/01/23 09:26:10;;;;;;;;;34.00;32.50;;;;;6.34;58.76;102979.69;5057648;28;45469;-79
2023/01/23 09:28:36;;;;;;;;;44.50;34.75;;;;;6.22;58.92;102956.50;5056877;28;45433;-80
2023/01/23 09:31:03;;;;;;;;;30.75;27.00;;;;;6.38;59.16;102982.38;5035428;28;45257;-79
2023/01/23 09:33:29;;;;;;;;;38.00;35.75;;;;;6.37;59.03;102975.28;5036585;28;45563;-82
2023/01/23 09:35:54;;;;;;;;;30.50;26.25;;;;;6.44;58.75;102995.75;5036452;28;45480;-79
2023/01/23 09:38:20;;;;;;;;;43.00;33.25;;;;;6.32;58.48;102969.00;5039209;28;45493;-81
2023/01/23 09:40:52;;;;;;;;;39.50;35.50;;;;;6.31;58.63;102985.88;5036876;28;45413;-79
2023/01/23 09:43:43;;;;;;;;;26.00;23.00;;;;;6.23;58.60;102963.63;5036279;28;46173;-80
2023/01/23 09:46:19;;;;;;;;;37.75;29.25;;;;;6.49;58.34;103014.44;5036119;28;45288;-78
2023/01/23 09:48:44;;;;;;;;;47.50;37.75;;;;;6.50;58.22;103020.66;5036986;28;45342;-80
2023/01/23 09:51:24;;;;;;;;;32.00;30.50;;;;;6.22;58.46;102968.94;5035959;28;45518;-78
2023/01/23 09:53:53;;;;;;;;;35.25;31.00;;;;;6.50;58.50;103021.53;5035439;28;45344;-79
2023/01/23 09:56:32;;;;;;;;;37.75;32.75;;;;;6.43;58.53;102995.75;5036095;28;45371;-81
2023/01/23 09:59:32;;;;;;;;;41.75;29.25;;;;;6.41;58.38;103003.72;5028788;28;45899;-79
2023/01/23 10:01:59;;;;;;;;;38.25;34.00;;;;;6.34;57.90;102993.91;5035936;28;45429;-80
2023/01/23 10:04:25;;;;;;;;;38.25;34.00;;;;;6.15;58.11;102973.31;5018125;28;45426;-80
2023/01/23 10:07:16;;;;;;;;;32.25;25.00;;;;;6.20;58.25;102986.69;5036608;28;45411;-78
2023/01/23 10:09:50;;;;;;;;;33.50;29.75;;;;;6.43;58.13;103031.28;5036434;28;45412;-80
2023/01/23 10:12:37;;;;;;;;;37.00;30.00;;;;;6.41;58.10;103027.69;5036395;28;45404;-79
2023/01/23 10:15:11;;;;;;;;;28.50;22.75;;;;;6.42;58.32;103037.47;5035784;28;45390;-81
2023/01/23 10:18:09;;;;;;;;;33.50;26.25;;;;;6.45;58.34;103036.63;5017852;28;46988;-79
2023/01/23 10:20:45;;;;;;;;;40.00;34.50;;;;;6.43;58.54;103036.59;5017368;28;45412;-80
2023/01/23 10:23:22;;;;;;;;;37.00;31.75;;;;;6.41;58.69;103034.78;5036141;28;45257;-79
2023/01/23 10:25:48;;;;;;;;;41.50;34.75;;;;;6.19;58.39;102990.22;5035733;28;45544;-79
2023/01/23 10:28:26;;;;;;;;;30.50;24.75;;;;;6.43;58.84;103033.94;5036347;28;46174;-80
2023/01/23 10:30:59;;;;;;;;;42.25;33.75;;;;;6.46;58.45;103041.06;5039215;28;45391;-80
2023/01/23 10:33:36;;;;;;;;;33.50;30.75;;;;;6.42;58.90;103036.59;5056191;28;45422;-79
2023/01/23 10:36:12;;;;;;;;;35.00;33.00;;;;;6.42;58.33;103031.25;5055544;28;45453;-80
2023/01/23 10:38:49;;;;;;;;;37.50;31.00;;;;;6.46;58.72;103038.41;5052583;28;47360;-81
2023/01/23 10:41:20;;;;;;;;;34.50;31.00;;;;;6.30;58.45;102997.41;5053491;28;45232;-79
2023/01/23 10:43:50;;;;;;;;;40.50;31.50;;;;;6.51;58.38;103039.31;5037930;28;45394;-78
2023/01/23 10:46:17;;;;;;;;;41.00;33.50;;;;;6.42;58.13;103028.59;5055729;28;45454;-79
2023/01/23 10:48:44;;;;;;;;;33.25;29.00;;;;;6.29;58.67;103008.97;5056396;28;45317;-79
2023/01/23 10:51:31;;;;;;;;;29.50;26.75;;;;;6.49;58.49;103032.19;5055319;28;45371;-79
2023/01/23 10:54:19;;;;;;;;;45.00;37.25;;;;;6.30;58.37;102989.41;5055854;28;45535;-78
2023/01/23 10:56:57;;;;;;;;;33.75;28.75;;;;;6.51;58.55;103020.66;5037943;28;46919;-80
2023/01/23 10:59:34;;;;;;;;;31.25;29.50;;;;;6.07;58.21;102943.97;5059469;28;45512;-78
2023/01/23 11:02:16;;;;;;;;;32.25;29.00;;;;;6.44;58.47;103002.84;5058879;28;45350;-81
2023/01/23 11:04:44;;;;;;;;;35.75;28.75;;;;;6.47;58.27;103008.19;5055765;28;45330;-82
2023/01/23 11:07:16;;;;;;;;;38.00;28.75;;;;;6.51;57.69;103020.66;5036383;28;46108;-79
2023/01/23 11:10:10;;;;;;;;;29.75;28.75;;;;;6.45;57.93;103016.19;5055921;28;46504;-78
2023/01/23 11:12:47;;;;;;;;;32.25;31.25;;;;;6.13;58.39;102952.88;5049588;28;45394;-79
2023/01/23 11:15:32;;;;;;;;;33.00;27.50;;;;;6.44;58.35;103001.09;5051599;28;45544;-81
2023/01/23 11:18:00;;;;;;;;;28.75;19.50;;;;;6.35;58.06;102981.47;5055606;28;45307;-77
2023/01/23 11:20:34;;;;;;;;;29.50;24.50;;;;;6.50;58.59;103007.31;5055576;28;45558;-79
2023/01/23 11:23:07;;;;;;;;;37.00;28.75;;;;;6.50;58.57;103004.66;5037335;28;45430;-78
2023/01/23 11:25:38;;;;;;;;;35.50;30.50;;;;;6.52;58.29;103000.25;5055473;28;45347;-80
2023/01/23 11:28:33;;;;;;;;;30.25;26.75;;;;;6.49;58.41;102985.13;5039929;28;47019;-86
2023/01/23 11:31:12;;;;;;;;;35.00;28.50;;;;;6.21;58.29;102944.06;5037105;28;47060;-84
2023/01/23 11:33:40;;;;;;;;;43.75;32.00;;;;;6.61;58.19;103000.31;5055206;28;45566;-81
2023/01/23 11:36:35;;;;;;;;;28.25;26.75;;;;;6.43;57.75;102953.09;5036650;28;45501;-78
2023/01/23 11:39:38;;;;;;;;;31.00;29.50;;;;;6.67;57.82;102993.22;5054073;28;47335;-84
2023/01/23 11:42:03;;;;;;;;;27.25;26.50;;;;;6.54;57.09;102955.84;5054834;28;46018;-81
2023/01/23 11:44:29;;;;;;;;;29.00;27.00;;;;;6.69;57.40;102986.16;5036134;28;45530;-75
2023/01/23 11:47:14;;;;;;;;;39.00;29.75;;;;;6.70;57.59;102981.69;5053891;28;45469;-76
2023/01/23 11:50:20;;;;;;;;;37.00;33.50;;;;;6.72;57.26;102972.81;5054215;28;45378;-84
2023/01/23 11:53:18;;;;;;;;;32.50;25.25;;;;;6.71;56.95;102976.38;5000494;28;47898;-76
2023/01/23 11:56:05;;;;;;;;;28.50;24.50;;;;;6.67;57.29;102968.34;5049010;28;45457;-79
2023/01/23 11:59:01;;;;;;;;;36.75;25.50;;;;;6.63;57.41;102956.78;5055241;28;45794;-79
2023/01/23 12:01:39;;;;;;;;;27.25;24.00;;;;;6.40;56.44;102922.00;5044705;28;45525;-81
2023/01/23 12:04:13;;;;;;;;;19.00;17.50;;;;;6.61;56.55;102939.00;5054855;28;46504;-80
2023/01/23 12:06:52;;;;;;;;;30.50;22.25;;;;;6.59;56.61;102946.97;5055079;28;45375;-79
2023/01/23 12:09:20;;;;;;;;;31.75;24.25;;;;;6.43;56.62;102927.34;5056355;28;45445;-79
2023/01/23 12:12:07;;;;;;;;;30.00;25.75;;;;;6.56;56.90;102938.97;5054513;28;45576;-77
2023/01/23 12:14:59;;;;;;;;;38.50;31.25;;;;;6.57;57.32;102922.09;5035215;28;48144;-81
2023/01/23 12:17:31;;;;;;;;;22.75;21.50;;;;;6.58;56.97;102928.31;5053721;28;45418;-80
2023/01/23 12:20:17;;;;;;;;;38.75;27.00;;;;;6.58;56.90;102933.66;5022412;28;45562;-81
2023/01/23 12:22:49;;;;;;;;;25.75;24.50;;;;;6.21;56.99;102860.63;5036674;28;45296;-83
2023/01/23 12:25:25;;;;;;;;;30.50;24.00;;;;;6.28;57.22;102876.66;5023602;28;46864;-82
2023/01/23 12:28:03;;;;;;;;;27.75;23.00;;;;;6.18;56.65;102836.63;5055581;28;45464;-83
2023/01/23 12:31:05;;;;;;;;;24.00;21.25;;;;;6.65;56.83;102923.03;5071731;28;45390;-80
2023/01/23 12:33:47;;;;;;;;;27.25;23.75;;;;;6.20;56.40;102835.78;5055200;28;45499;-82
2023/01/23 12:36:30;;;;;;;;;29.25;25.00;;;;;6.65;56.13;102915.03;5054665;28;46555;-82
2023/01/23 12:39:03;;;;;;;;;29.75;25.50;;;;;6.65;56.33;102917.69;5036865;28;45499;-81
2023/01/23 12:41:38;;;;;;;;;24.50;22.25;;;;;6.66;56.58;102907.94;5054573;28;45275;-82
2023/01/23 12:44:14;;;;;;;;;28.75;23.25;;;;;6.66;56.25;102914.16;5035878;28;46325;-80
2023/01/23 12:46:55;;;;;;;;;24.00;22.75;;;;;6.45;56.59;102861.66;5044897;28;45377;-80
2023/01/23 12:49:34;;;;;;;;;23.50;23.00;;;;;6.73;56.41;102902.63;5056041;28;45445;-80
2023/01/23 12:52:06;;;;;;;;;30.25;26.25;;;;;6.54;56.30;102863.47;5040697;28;45368;-82
2023/01/23 12:54:57;;;;;;;;;21.50;21.25;;;;;6.38;56.09;102834.97;5057341;28;45595;-82
2023/01/23 12:57:38;;;;;;;;;36.00;24.00;;;;;6.82;56.09;102909.78;5057186;28;46286;-82
2023/01/23 13:00:16;;;;;;;;;27.75;25.00;;;;;6.82;56.73;102897.34;5057889;28;45453;-81
2023/01/23 13:02:53;;;;;;;;;22.25;20.25;;;;;6.83;56.28;102893.78;5057798;28;45260;-80
2023/01/23 13:05:33;;;;;;;;;22.75;22.75;;;;;6.76;56.80;102885.75;5039299;28;46433;-82
2023/01/23 13:08:30;;;;;;;;;29.00;23.50;;;;;6.86;56.27;102908.91;5057316;28;45450;-80
2023/01/23 13:14:24;;;;;;;;;33.25;27.50;;;;;6.67;56.50;102867.97;5056451;28;45452;-82
2023/01/23 13:16:51;;;;;;;;;22.50;19.75;;;;;6.55;55.72;102859.03;5055466;28;47024;-82
2023/01/23 13:22:24;;;;;;;;;31.00;24.25;;;;;6.71;56.62;102901.75;5056540;28;45242;-82
2023/01/23 13:27:50;;;;;;;;;25.25;23.50;;;;;6.60;56.88;102903.47;5056843;28;45316;-82
2023/01/23 13:30:31;;;;;;;;;25.75;23.75;;;;;6.63;56.67;102898.16;5038692;28;47610;-83
2023/01/23 13:33:28;;;;;;;;;21.75;21.25;;;;;6.57;56.71;102873.22;5056824;28;45333;-81
2023/01/23 13:35:55;;;;;;;;;24.25;20.00;;;;;6.31;56.25;102834.03;5058086;28;45302;-81
2023/01/23 13:38:20;;;;;;;;;31.50;23.50;;;;;6.68;56.20;102896.41;5044746;28;45594;-79
2023/01/23 13:41:04;;;;;;;;;22.50;21.00;;;;;6.65;56.67;102884.81;5058125;28;45350;-81
2023/01/23 13:43:54;;;;;;;;;26.75;25.25;;;;;6.30;56.44;102842.00;5039561;28;45383;-80
2023/01/23 13:46:28;;;;;;;;;27.25;23.25;;;;;6.62;56.49;102895.47;5052555;28;45406;-82
2023/01/23 13:51:44;;;;;;;;;22.00;20.25;;;;;6.62;56.07;102882.16;5057917;28;45510;-80
2023/01/23 13:57:02;;;;;;;;;27.50;23.00;;;;;6.34;56.00;102822.50;5059861;28;45647;-80
2023/01/23 13:59:39;;;;;;;;;26.25;22.25;;;;;6.56;55.75;102850.13;5044205;28;46106;-82
2023/01/23 14:05:18;;;;;;;;;26.25;21.75;;;;;6.68;55.42;102877.75;5082044;28;44846;-81
2023/01/23 14:07:45;;;;;;;;;26.00;23.00;;;;;6.48;55.74;102828.78;5078006;28;45416;-81
2023/01/23 14:10:15;;;;;;;;;24.50;23.00;;;;;6.73;55.84;102875.06;5091565;28;46189;-82
2023/01/23 14:12:41;;;;;;;;;19.25;19.25;;;;;6.86;55.43;102892.91;5050404;28;46712;-83
2023/01/23 14:18:03;;;;;;;;;22.75;20.75;;;;;6.75;55.42;102875.97;5060528;28;45326;-83
2023/01/23 14:20:38;;;;;;;;;17.25;17.25;;;;;6.60;55.22;102859.94;5038711;28;45603;-82
2023/01/23 14:23:12;;;;;;;;;21.25;15.50;;;;;6.54;54.81;102857.25;5056685;28;45242;-80
2023/01/23 14:25:37;;;;;;;;;20.75;19.00;;;;;6.70;54.75;102885.75;5039305;28;45927;-83
2023/01/23 14:28:04;;;;;;;;;16.50;16.50;;;;;6.67;54.37;102886.63;5057698;28;45217;-81
2023/01/23 14:30:30;;;;;;;;;17.50;14.00;;;;;6.69;53.73;102894.63;5056212;28;45563;-81
2023/01/23 14:32:58;;;;;;;;;20.25;15.50;;;;;6.67;53.85;102891.94;5054637;28;47238;-81
2023/01/23 14:35:31;;;;;;;;;26.50;18.25;;;;;6.49;53.89;102881.19;5071787;28;45343;-80
2023/01/23 14:38:03;;;;;;;;;13.50;12.00;;;;;6.66;54.29;102910.59;5052908;28;45414;-82
2023/01/23 14:40:31;;;;;;;;;24.25;20.25;;;;;6.67;54.45;102920.38;5046512;28;45454;-81
2023/01/23 14:43:06;;;;;;;;;18.75;18.75;;;;;6.53;55.16;102904.31;5034232;28;46650;-83
2023/01/23 14:45:32;;;;;;;;;18.00;16.50;;;;;6.32;55.14;102861.56;5048306;28;45627;-81
2023/01/23 14:47:57;;;;;;;;;20.50;16.00;;;;;6.46;54.97;102892.72;5039944;28;45515;-82
2023/01/23 14:50:26;;;;;;;;;19.50;15.75;;;;;6.58;54.84;102921.22;5037719;28;46788;-80
2023/01/23 14:53:01;;;;;;;;;15.25;14.75;;;;;6.24;54.20;102863.28;5053682;28;46386;-81
2023/01/23 14:55:28;;;;;;;;;21.25;18.75;;;;;6.47;54.51;102906.94;5055801;28;45243;-81
2023/01/23 14:57:57;;;;;;;;;14.75;14.50;;;;;6.34;53.93;102899.75;5056295;28;45693;-81
2023/01/23 15:00:27;;;;;;;;;17.50;11.00;;;;;6.26;53.37;102896.16;5037594;28;46181;-87
2023/01/23 15:02:54;;;;;;;;;13.00;13.00;;;;;6.23;53.78;102907.69;5034730;28;47644;-82
2023/01/23 15:05:23;;;;;;;;;15.25;15.25;;;;;6.37;54.15;102930.00;5050181;28;45532;-79
2023/01/23 15:08:31;;;;;;;;;14.75;12.00;;;;;6.41;54.11;102921.13;5057103;28;45344;-81
2023/01/23 15:11:00;;;;;;;;;20.25;15.75;;;;;6.23;54.13;102889.03;5038135;28;46566;-81
2023/01/23 15:13:46;;;;;;;;;17.25;13.00;;;;;6.45;53.63;102922.03;5038443;28;48189;-80
2023/01/23 15:16:16;;;;;;;;;18.25;15.25;;;;;6.40;54.26;102903.34;5038226;28;45490;-79
2023/01/23 15:18:52;;;;;;;;;13.00;13.00;;;;;6.12;54.39;102849.94;5035819;28;45331;-81
2023/01/23 15:21:33;;;;;;;;;24.25;16.25;;;;;6.29;54.04;102877.56;5048737;28;46329;-82
2023/01/23 15:24:05;;;;;;;;;14.75;14.75;;;;;6.44;54.71;102913.16;5056590;28;45788;-79
2023/01/23 15:26:30;;;;;;;;;19.00;15.50;;;;;6.47;54.73;102906.94;5058996;28;45374;-80
2023/01/23 15:29:00;;;;;;;;;15.75;12.25;;;;;6.47;54.84;102904.28;5058310;28;45642;-81
2023/01/23 15:31:31;;;;;;;;;19.25;17.50;;;;;6.49;54.88;102904.28;5056096;28;45297;-82
2023/01/23 15:34:12;;;;;;;;;25.75;19.00;;;;;6.47;54.76;102907.81;5060556;28;45373;-82
2023/01/23 15:36:44;;;;;;;;;21.75;18.75;;;;;6.51;55.32;102905.19;5040471;28;45557;-84
2023/01/23 15:39:31;;;;;;;;;18.00;16.75;;;;;6.32;55.23;102856.25;5057157;28;45339;-81
2023/01/23 15:41:59;;;;;;;;;20.25;18.50;;;;;6.28;54.98;102855.34;5049134;28;45548;-81
2023/01/23 15:44:27;;;;;;;;;27.25;19.25;;;;;6.39;55.00;102871.38;5052264;28;45511;-81
2023/01/23 15:46:53;;;;;;;;;18.50;14.75;;;;;6.60;54.84;102891.91;5058586;28;45902;-82
2023/01/23 15:49:19;;;;;;;;;24.00;21.00;;;;;6.55;54.88;102883.88;5040024;28;45269;-81
2023/01/23 15:51:44;;;;;;;;;20.00;18.75;;;;;6.46;54.79;102866.06;5056687;28;45516;-76
2023/01/23 15:54:23;;;;;;;;;20.00;18.75;;;;;6.46;55.00;102867.88;5055169;28;45306;-81
2023/01/23 15:56:49;;;;;;;;;19.50;18.25;;;;;6.35;55.35;102840.28;5055331;28;45463;-82
2023/01/23 15:59:17;;;;;;;;;19.00;17.50;;;;;6.55;54.98;102878.56;5055149;28;45374;-84
2023/01/23 16:01:42;;;;;;;;;18.25;16.00;;;;;5.93;55.40;102772.59;5034864;28;46548;-81
2023/01/23 16:04:08;;;;;;;;;16.50;15.50;;;;;6.46;54.95;102857.22;5052615;28;46062;-80
2023/01/23 16:06:34;;;;;;;;;18.25;18.00;;;;;6.12;55.06;102796.66;5039449;28;45504;-82
2023/01/23 16:09:00;;;;;;;;;22.75;19.25;;;;;6.58;55.00;102878.56;5040520;28;45387;-84
2023/01/23 16:11:33;;;;;;;;;15.25;12.00;;;;;6.50;54.87;102855.44;5057667;28;47216;-82
2023/01/23 16:14:00;;;;;;;;;19.25;15.50;;;;;6.51;54.93;102858.13;5044682;28;46041;-81
2023/01/23 16:16:27;;;;;;;;;19.75;18.25;;;;;6.30;54.88;102818.03;5054706;28;45235;-80
2023/01/23 16:18:52;;;;;;;;;21.75;15.00;;;;;6.48;54.51;102863.41;5054660;28;45595;-79
2023/01/23 16:21:25;;;;;;;;;16.25;15.00;;;;;6.53;54.42;102860.78;5035254;28;45535;-83
2023/01/23 16:23:51;;;;;;;;;13.00;13.00;;;;;6.23;54.87;102809.13;5057743;28;45681;-80
2023/01/23 16:26:22;;;;;;;;;24.00;21.25;;;;;6.31;55.12;102828.72;5059571;28;45470;-81
2023/01/23 16:28:48;;;;;;;;;15.50;15.50;;;;;6.59;54.82;102885.69;5062961;28;45376;-85
2023/01/23 16:31:15;;;;;;;;;23.25;17.25;;;;;6.57;54.83;102881.22;5052017;28;45663;-79
2023/01/23 16:33:41;;;;;;;;;17.75;15.50;;;;;6.25;55.12;102827.78;5057961;28;45274;-80
2023/01/23 16:36:18;;;;;;;;;25.75;19.50;;;;;6.54;54.88;102882.13;5049460;28;45316;-82
2023/01/23 16:38:54;;;;;;;;;20.75;18.50;;;;;6.40;55.06;102862.50;5057502;28;45365;-81
2023/01/23 16:41:20;;;;;;;;;26.00;22.00;;;;;6.49;54.99;102885.63;5056034;28;45639;-80
2023/01/23 16:43:45;;;;;;;;;19.00;19.00;;;;;6.41;55.34;102888.25;5040646;28;45507;-82
2023/01/23 16:46:10;;;;;;;;;25.25;20.75;;;;;6.33;55.68;102877.56;5056082;28;45305;-80
2023/01/23 16:48:36;;;;;;;;;28.25;20.50;;;;;6.30;55.75;102873.97;5057791;28;45557;-81
2023/01/23 16:51:20;;;;;;;;;27.00;21.50;;;;;6.41;55.64;102899.81;5057409;28;45335;-81
2023/01/23 16:53:52;;;;;;;;;27.00;24.50;;;;;6.36;55.77;102895.34;5057592;28;46544;-83
2023/01/23 16:56:26;;;;;;;;;24.00;21.25;;;;;6.43;56.11;102906.03;5058196;28;45351;-82
2023/01/23 16:58:52;;;;;;;;;19.50;19.50;;;;;6.17;55.85;102857.06;5047917;28;45231;-82
2023/01/23 17:01:20;;;;;;;;;22.75;19.00;;;;;6.19;55.45;102857.97;5057127;28;45351;-82
2023/01/23 17:03:57;;;;;;;;;24.00;20.00;;;;;6.08;55.55;102835.69;5055543;28;45548;-81
2023/01/23 17:06:23;;;;;;;;;23.50;20.50;;;;;6.34;56.04;102889.09;5057317;28;45440;-82
2023/01/23 17:08:49;;;;;;;;;21.25;18.50;;;;;6.23;56.13;102886.38;5057391;28;47507;-81
2023/01/23 17:11:25;;;;;;;;;22.50;21.00;;;;;6.25;56.03;102889.06;5057816;28;45381;-79
2023/01/23 17:13:57;;;;;;;;;26.75;21.25;;;;;6.21;55.97;102885.47;5057253;28;46376;-83
2023/01/23 17:16:22;;;;;;;;;29.75;21.50;;;;;6.28;55.95;102908.63;5044166;28;45481;-81
2023/01/23 17:18:48;;;;;;;;;21.25;18.00;;;;;6.03;56.24;102869.41;5054995;28;45429;-79
2023/01/23 17:21:18;;;;;;;;;31.50;25.50;;;;;6.03;56.28;102854.31;5036482;28;46780;-82
2023/01/23 17:23:48;;;;;;;;;31.75;28.75;;;;;6.42;56.52;102922.00;5036937;28;47014;-80
2023/01/23 17:26:18;;;;;;;;;19.25;19.00;;;;;6.43;56.25;102931.78;5038982;28;45876;-81
2023/01/23 17:28:43;;;;;;;;;28.75;24.75;;;;;6.18;56.51;102895.22;5056900;28;45300;-81